createdAt,value
2023-04-24T00:04:50.400Z,97796.13
2023-04-24T00:15:16.470Z,97789.10
2023-04-24T00:25:42.261Z,97777.67
2023-04-24T00:36:09.559Z,97766.17
2023-04-24T00:46:35.479Z,97750.19
2023-04-24T00:57:02.530Z,97741.86
2023-04-24T01:07:29.332Z,97740.42
2023-04-24T01:17:54.860Z,97731.91
2023-04-24T01:28:21.066Z,97722.73
2023-04-24T01:38:47.795Z,97718.02
2023-04-24T01:49:13.891Z,97706.94
2023-04-24T01:59:39.568Z,97701.22
2023-04-24T02:10:06.348Z,97699.83
2023-04-24T02:20:35.053Z,97690.89
2023-04-24T02:31:01.171Z,97679.39
2023-04-24T02:41:35.486Z,97672.78
2023-04-24T02:52:01.662Z,97668.91
2023-04-24T03:02:27.808Z,97668.98
2023-04-24T03:12:56.047Z,97672.05
2023-04-24T03:23:21.842Z,97674.89
2023-04-24T03:33:47.486Z,97671.77
2023-04-24T03:44:13.257Z,97666.45
2023-04-24T03:54:39.157Z,97664.30
2023-04-24T04:05:05.169Z,97665.63
2023-04-24T04:15:31.776Z,97663.70
2023-04-24T04:25:57.924Z,97659.34
2023-04-24T04:36:25.063Z,97662.68
2023-04-24T04:46:51.254Z,97661.61
2023-04-24T04:57:17.232Z,97654.33
2023-04-24T05:07:43.256Z,97656.10
2023-04-24T05:18:09.108Z,97660.40
2023-04-24T05:28:34.558Z,97656.80
2023-04-24T05:39:00.069Z,97653.56
2023-04-24T05:49:26.223Z,97647.05
2023-04-24T05:59:52.412Z,97641.66
2023-04-24T06:10:18.854Z,97631.66
2023-04-24T06:20:44.652Z,97626.09
2023-04-24T06:31:10.955Z,97621.86
2023-04-24T06:41:37.122Z,97618.70
2023-04-24T06:52:02.472Z,97611.33
2023-04-24T07:02:28.026Z,97602.32
2023-04-24T07:12:55.149Z,97593.98
2023-04-24T07:23:21.968Z,97589.73
2023-04-24T07:33:47.742Z,97584.19
2023-04-24T07:44:13.729Z,97576.23
2023-04-24T07:54:39.864Z,97578.02
2023-04-24T08:05:06.899Z,97572.25
2023-04-24T08:15:33.345Z,97560.61
2023-04-24T08:25:59.878Z,97559.73
2023-04-24T08:36:36.061Z,97553.73
2023-04-24T08:47:11.232Z,97542.13
2023-04-24T08:57:41.201Z,97533.38
2023-04-24T09:08:09.093Z,97533.38
2023-04-24T09:18:36.376Z,97540.30
2023-04-24T09:29:03.061Z,97541.02
2023-04-24T09:39:29.171Z,97537.52
2023-04-24T09:50:01.733Z,97530.45
2023-04-24T10:00:30.104Z,97523.81
2023-04-24T10:10:56.704Z,97521.80
2023-04-24T10:21:23.355Z,97517.55
2023-04-24T10:31:48.887Z,97525.36
2023-04-24T10:42:19.325Z,97535.81
2023-04-24T10:52:53.752Z,97535.31
2023-04-24T11:03:31.798Z,97536.91
2023-04-24T11:14:08.670Z,97534.73
2023-04-24T11:24:41.718Z,97537.98
2023-04-24T11:35:10.652Z,97534.54
2023-04-24T11:45:36.633Z,97556.61
2023-04-24T11:56:07.028Z,97562.98
2023-04-24T12:06:32.733Z,97561.05
2023-04-24T12:16:58.652Z,97556.27
2023-04-24T12:27:24.968Z,97548.61
2023-04-24T12:37:51.823Z,97547.31
2023-04-24T12:48:17.716Z,97546.91
2023-04-24T12:58:43.755Z,97553.88
2023-04-24T13:09:10.920Z,97553.89
2023-04-24T13:19:41.481Z,97538.75
2023-04-24T13:30:08.790Z,97532.09
2023-04-24T13:40:34.475Z,97530.73
2023-04-24T13:51:00.091Z,97525.94
2023-04-24T14:01:26.080Z,97522.66
2023-04-24T14:11:52.348Z,97513.95
2023-04-24T14:22:18.941Z,97509.02
2023-04-24T14:32:44.737Z,97509.90
2023-04-24T14:43:11.097Z,97498.16
2023-04-24T14:53:37.888Z,97499.77
2023-04-24T15:04:03.767Z,97504.40
2023-04-24T15:14:29.746Z,97503.55
2023-04-24T15:24:55.817Z,97499.57
2023-04-24T15:35:21.612Z,97500.86
2023-04-24T15:45:48.046Z,97499.28
2023-04-24T15:56:13.755Z,97502.83
2023-04-24T16:06:39.715Z,97506.65
2023-04-24T16:17:05.537Z,97502.36
2023-04-24T16:27:31.800Z,97501.55
2023-04-24T16:37:57.258Z,97502.91
2023-04-24T16:48:23.129Z,97502.54
2023-04-24T16:58:49.595Z,97500.27
2023-04-24T17:09:16.172Z,97498.80
2023-04-24T17:19:42.559Z,97492.89
2023-04-24T17:30:11.630Z,97500.02
2023-04-24T17:40:39.448Z,97511.45
2023-04-24T17:51:05.230Z,97513.08
2023-04-24T18:01:31.185Z,97519.23
2023-04-24T18:11:57.884Z,97532.26
2023-04-24T18:22:23.613Z,97548.16
2023-04-24T18:32:49.414Z,97557.00
2023-04-24T18:43:15.339Z,97559.52
2023-04-24T18:53:41.491Z,97566.28
2023-04-24T19:04:07.543Z,97573.83
2023-04-24T19:14:33.542Z,97573.70
2023-04-24T19:25:00.411Z,97575.35
2023-04-24T19:35:26.257Z,97575.88
2023-04-24T19:45:53.575Z,97573.80
2023-04-24T19:56:19.404Z,97567.35
2023-04-24T20:06:45.167Z,97567.73
2023-04-24T20:17:11.408Z,97571.32
2023-04-24T20:27:37.281Z,97566.27
2023-04-24T20:38:03.365Z,97580.61
2023-04-24T20:48:29.175Z,97581.85
2023-04-24T20:58:57.205Z,97588.55
2023-04-24T21:09:23.268Z,97598.51
2023-04-24T21:19:48.999Z,97604.09
2023-04-24T21:30:15.837Z,97607.16
2023-04-24T21:40:41.786Z,97615.32
2023-04-24T21:51:07.565Z,97619.87
2023-04-24T22:01:34.419Z,97615.37
2023-04-24T22:12:00.120Z,97615.86
2023-04-24T22:22:25.908Z,97626.55
2023-04-24T22:32:51.896Z,97631.52
2023-04-24T22:43:18.552Z,97632.83
2023-04-24T22:53:44.649Z,97629.27
2023-04-24T23:04:10.632Z,97631.92
2023-04-24T23:14:36.599Z,97626.02
2023-04-24T23:25:02.490Z,97621.09
2023-04-24T23:35:28.249Z,97617.69
2023-04-24T23:45:53.941Z,97609.48
2023-04-24T23:56:20.126Z,97604.01
